createdAt,value
2023-03-29T00:02:41.881Z,2.90
2023-03-29T00:05:09.934Z,2.80
2023-03-29T00:07:36.558Z,2.87
2023-03-29T00:10:04.752Z,2.80
2023-03-29T00:12:31.884Z,2.60
2023-03-29T00:14:58.481Z,2.80
2023-03-29T00:17:25.340Z,2.80
2023-03-29T00:19:51.998Z,2.97
2023-03-29T00:22:18.785Z,2.97
2023-03-29T00:24:47.768Z,3.10
2023-03-29T00:27:15.668Z,3.20
2023-03-29T00:29:42.552Z,3.30
2023-03-29T00:32:09.142Z,2.90
2023-03-29T00:34:38.654Z,2.80
2023-03-29T00:37:08.698Z,2.47
2023-03-29T00:39:36.876Z,2.87
2023-03-29T00:42:03.638Z,2.60
2023-03-29T00:44:56.463Z,2.67
2023-03-29T00:47:31.385Z,2.90
2023-03-29T00:50:04.654Z,2.73
2023-03-29T00:52:32.215Z,2.70
2023-03-29T00:55:03.077Z,2.80
2023-03-29T00:57:30.992Z,2.77
2023-03-29T00:59:58.450Z,2.90
2023-03-29T01:02:28.719Z,3.07
2023-03-29T01:05:01.558Z,2.77
2023-03-29T01:07:35.347Z,2.50
2023-03-29T01:10:31.098Z,2.70
2023-03-29T01:13:04.833Z,2.93
2023-03-29T01:15:32.730Z,2.90
2023-03-29T01:18:01.999Z,3.03
2023-03-29T01:20:53.842Z,2.73
2023-03-29T01:23:58.321Z,3.07
2023-03-29T01:26:42.958Z,2.80
2023-03-29T01:29:19.914Z,3.17
2023-03-29T01:31:52.751Z,2.93
2023-03-29T01:34:27.332Z,2.93
2023-03-29T01:37:13.494Z,2.97
2023-03-29T01:39:40.301Z,2.70
2023-03-29T01:42:24.607Z,2.67
2023-03-29T01:45:02.784Z,2.70
2023-03-29T01:48:02.141Z,2.70
2023-03-29T01:50:37.844Z,2.70
2023-03-29T01:53:13.742Z,2.60
2023-03-29T01:55:49.473Z,2.80
2023-03-29T01:58:18.611Z,2.80
2023-03-29T02:00:46.692Z,3.10
2023-03-29T02:03:28.181Z,3.13
2023-03-29T02:05:56.557Z,2.70
2023-03-29T02:08:28.971Z,3.10
2023-03-29T02:10:57.180Z,2.83
2023-03-29T02:13:23.988Z,3.27
2023-03-29T02:15:50.657Z,2.70
2023-03-29T02:18:19.880Z,2.83
2023-03-29T02:20:49.223Z,3.53
2023-03-29T02:23:24.404Z,2.40
2023-03-29T02:25:56.927Z,2.67
2023-03-29T02:28:25.503Z,3.57
2023-03-29T02:31:14.793Z,2.77
2023-03-29T02:34:02.254Z,2.40
2023-03-29T02:36:41.521Z,2.30
2023-03-29T02:39:13.722Z,2.40
2023-03-29T02:41:43.630Z,2.90
2023-03-29T02:44:15.419Z,3.40
2023-03-29T02:46:43.998Z,3.20
2023-03-29T02:49:12.269Z,3.70
2023-03-29T02:51:39.230Z,2.70
2023-03-29T02:54:12.899Z,2.77
2023-03-29T02:56:44.785Z,2.80
2023-03-29T02:59:12.443Z,2.47
2023-03-29T03:01:44.254Z,3.00
2023-03-29T03:04:12.406Z,2.63
2023-03-29T03:06:39.431Z,2.57
2023-03-29T03:09:07.014Z,2.57
2023-03-29T03:11:36.594Z,2.70
2023-03-29T03:14:03.418Z,2.13
2023-03-29T03:16:30.076Z,2.30
2023-03-29T03:18:57.190Z,2.10
2023-03-29T03:21:24.575Z,2.53
2023-03-29T03:23:52.405Z,2.10
2023-03-29T03:26:19.207Z,2.33
2023-03-29T03:28:46.451Z,2.60
2023-03-29T03:31:33.551Z,2.50
2023-03-29T03:34:11.051Z,2.50
2023-03-29T03:36:47.283Z,2.20
2023-03-29T03:39:14.319Z,2.10
2023-03-29T03:41:42.408Z,2.50
2023-03-29T03:44:09.141Z,2.50
2023-03-29T03:46:36.934Z,2.90
2023-03-29T03:49:05.780Z,2.63
2023-03-29T03:51:37.325Z,2.33
2023-03-29T03:54:04.336Z,2.53
2023-03-29T03:56:34.314Z,2.37
2023-03-29T03:59:04.757Z,2.13
2023-03-29T04:02:05.916Z,2.03
2023-03-29T04:04:33.478Z,2.40
2023-03-29T04:07:07.334Z,2.40
2023-03-29T04:09:40.772Z,4.70
2023-03-29T04:12:20.869Z,2.70
2023-03-29T04:14:48.409Z,2.07
2023-03-29T04:17:20.019Z,2.07
2023-03-29T04:19:54.259Z,2.10
2023-03-29T04:22:20.982Z,2.17
2023-03-29T04:24:48.380Z,2.27
2023-03-29T04:27:37.727Z,2.57
2023-03-29T04:30:12.378Z,2.73
2023-03-29T04:33:02.165Z,2.10
2023-03-29T04:35:28.882Z,2.47
2023-03-29T04:37:55.913Z,3.07
2023-03-29T04:40:23.600Z,2.90
2023-03-29T04:43:02.893Z,3.67
2023-03-29T04:45:30.509Z,3.17
2023-03-29T04:48:13.957Z,3.00
2023-03-29T04:50:46.846Z,3.13
2023-03-29T04:53:14.830Z,4.00
2023-03-29T04:55:43.407Z,3.77
2023-03-29T04:58:14.421Z,3.73
2023-03-29T05:00:43.069Z,3.10
2023-03-29T05:03:35.746Z,2.97
2023-03-29T05:06:14.046Z,2.50
2023-03-29T05:08:41.117Z,2.67
2023-03-29T05:11:21.326Z,2.30
2023-03-29T05:13:47.909Z,2.50
2023-03-29T05:16:15.890Z,2.43
2023-03-29T05:18:43.025Z,2.40
2023-03-29T05:21:10.473Z,2.63
2023-03-29T05:23:39.636Z,2.97
2023-03-29T05:26:15.142Z,3.10
2023-03-29T05:28:46.132Z,2.80
2023-03-29T05:31:14.153Z,2.80
2023-03-29T05:33:43.045Z,3.10
2023-03-29T05:36:15.872Z,2.80
2023-03-29T05:38:46.837Z,2.83
2023-03-29T05:41:15.925Z,3.37
2023-03-29T05:43:52.097Z,3.30
2023-03-29T05:46:21.799Z,2.83
2023-03-29T05:48:51.936Z,2.83
2023-03-29T05:51:24.328Z,2.60
2023-03-29T05:53:54.373Z,3.00
2023-03-29T05:56:22.520Z,4.83
2023-03-29T05:58:53.671Z,3.20
2023-03-29T06:01:22.612Z,3.67
2023-03-29T06:04:00.940Z,4.33
2023-03-29T06:06:38.509Z,4.20
2023-03-29T06:09:06.101Z,4.70
2023-03-29T06:11:45.119Z,7.10
2023-03-29T06:14:34.579Z,6.77
2023-03-29T06:17:19.644Z,3.70
2023-03-29T06:19:47.301Z,3.27
2023-03-29T06:22:15.029Z,3.93
2023-03-29T06:24:42.679Z,3.43
2023-03-29T06:27:17.688Z,2.67
2023-03-29T06:29:45.332Z,2.73
2023-03-29T06:32:12.634Z,2.70
2023-03-29T06:34:46.550Z,3.13
2023-03-29T06:37:23.353Z,3.30
2023-03-29T06:39:59.751Z,2.90
2023-03-29T06:42:33.978Z,2.70
2023-03-29T06:45:21.199Z,2.30
2023-03-29T06:47:50.931Z,2.70
2023-03-29T06:50:18.203Z,2.40
2023-03-29T06:53:07.366Z,2.77
2023-03-29T06:55:34.695Z,3.50
2023-03-29T06:58:15.488Z,2.40
2023-03-29T07:00:42.606Z,3.67
2023-03-29T07:03:23.595Z,3.60
2023-03-29T07:06:01.295Z,3.47
2023-03-29T07:08:31.640Z,3.70
2023-03-29T07:11:03.714Z,3.30
2023-03-29T07:13:49.069Z,2.97
2023-03-29T07:16:19.630Z,3.73
2023-03-29T07:18:57.451Z,3.27
2023-03-29T07:21:44.105Z,4.07
2023-03-29T07:24:10.947Z,3.80
2023-03-29T07:26:38.140Z,3.10
2023-03-29T07:29:05.242Z,3.00
2023-03-29T07:31:35.787Z,3.17
2023-03-29T07:34:22.646Z,3.37
2023-03-29T07:36:49.376Z,2.93
2023-03-29T07:39:16.065Z,2.73
2023-03-29T07:41:51.706Z,2.80
2023-03-29T07:44:19.345Z,2.50
2023-03-29T07:46:45.967Z,2.90
2023-03-29T07:49:12.711Z,2.93
2023-03-29T07:51:39.359Z,2.83
2023-03-29T07:54:09.033Z,2.83
2023-03-29T07:56:44.163Z,2.37
2023-03-29T07:59:29.986Z,2.17
2023-03-29T08:02:07.482Z,1.67
2023-03-29T08:04:38.420Z,2.80
2023-03-29T08:07:28.043Z,2.07
2023-03-29T08:10:03.863Z,2.17
2023-03-29T08:12:58.682Z,1.95
2023-03-29T08:15:39.107Z,2.30
2023-03-29T08:18:09.749Z,2.80
2023-03-29T08:20:36.715Z,2.42
2023-03-29T08:23:04.055Z,2.40
2023-03-29T08:25:49.086Z,2.40
2023-03-29T08:28:16.046Z,2.35
2023-03-29T08:30:50.733Z,2.20
2023-03-29T08:33:17.576Z,2.65
2023-03-29T08:35:48.388Z,2.25
2023-03-29T08:38:21.802Z,2.10
2023-03-29T08:40:50.224Z,2.10
2023-03-29T08:43:39.581Z,1.85
2023-03-29T08:46:34.312Z,2.25
2023-03-29T08:49:12.435Z,2.20
2023-03-29T08:51:50.201Z,2.00
2023-03-29T08:54:22.104Z,2.80
2023-03-29T08:57:24.433Z,2.10
2023-03-29T08:59:58.520Z,2.10
2023-03-29T09:02:37.586Z,2.15
2023-03-29T09:05:38.809Z,2.40
2023-03-29T09:08:22.562Z,2.30
2023-03-29T09:11:18.452Z,2.30
2023-03-29T09:14:00.516Z,2.40
2023-03-29T09:17:13.832Z,2.22
2023-03-29T09:20:00.162Z,2.35
2023-03-29T09:22:47.334Z,2.40
2023-03-29T09:25:24.196Z,2.28
2023-03-29T09:28:04.588Z,2.20
2023-03-29T09:31:06.111Z,2.03
2023-03-29T09:33:49.733Z,1.88
2023-03-29T09:36:22.066Z,2.15
2023-03-29T09:38:54.116Z,2.20
2023-03-29T09:41:32.174Z,2.15
2023-03-29T09:44:10.905Z,2.42
2023-03-29T09:46:45.614Z,2.28
2023-03-29T09:49:17.698Z,2.15
2023-03-29T09:51:48.333Z,2.35
2023-03-29T09:54:16.230Z,2.50
2023-03-29T09:57:15.637Z,2.38
2023-03-29T09:59:44.540Z,1.92
2023-03-29T10:02:13.021Z,2.20
2023-03-29T10:04:42.544Z,2.58
2023-03-29T10:07:18.163Z,2.72
2023-03-29T10:09:51.873Z,3.03
2023-03-29T10:12:20.855Z,3.40
2023-03-29T10:14:54.236Z,2.38
2023-03-29T10:17:29.363Z,2.20
2023-03-29T10:19:58.680Z,1.88
2023-03-29T10:22:27.792Z,2.25
2023-03-29T10:24:57.247Z,1.90
2023-03-29T10:27:29.489Z,1.85
2023-03-29T10:29:58.298Z,1.80
2023-03-29T10:32:35.672Z,2.13
2023-03-29T10:35:09.339Z,2.30
2023-03-29T10:37:40.158Z,2.17
2023-03-29T10:40:07.314Z,2.00
2023-03-29T10:42:33.925Z,2.10
2023-03-29T10:45:00.584Z,2.03
2023-03-29T10:47:34.293Z,2.00
2023-03-29T10:50:01.537Z,2.38
2023-03-29T10:52:29.596Z,1.85
2023-03-29T10:54:56.892Z,2.00
2023-03-29T10:57:58.960Z,2.60
2023-03-29T11:00:47.011Z,2.28
2023-03-29T11:03:52.069Z,2.72
2023-03-29T11:06:36.240Z,2.35
2023-03-29T11:09:15.419Z,2.33
2023-03-29T11:12:14.878Z,2.13
2023-03-29T11:14:52.791Z,2.10
2023-03-29T11:17:42.895Z,1.90
2023-03-29T11:20:19.548Z,2.00
2023-03-29T11:23:05.919Z,2.30
2023-03-29T11:25:48.186Z,2.22
2023-03-29T11:28:28.662Z,2.47
2023-03-29T11:31:18.689Z,2.30
2023-03-29T11:34:13.215Z,2.00
2023-03-29T11:37:06.209Z,2.45
2023-03-29T11:39:54.856Z,2.00
2023-03-29T11:42:29.368Z,1.90
2023-03-29T11:44:59.682Z,2.22
2023-03-29T11:47:33.328Z,2.10
2023-03-29T11:50:17.547Z,2.05
2023-03-29T11:52:51.729Z,1.90
2023-03-29T11:55:23.689Z,2.15
2023-03-29T11:58:22.419Z,2.38
2023-03-29T12:00:55.366Z,2.25
2023-03-29T12:03:56.331Z,1.98
2023-03-29T12:06:45.512Z,1.73
2023-03-29T12:09:24.101Z,2.13
2023-03-29T12:11:59.200Z,1.75
2023-03-29T12:14:37.249Z,1.95
2023-03-29T12:17:09.219Z,1.90
2023-03-29T12:19:49.110Z,1.60
2023-03-29T12:22:16.220Z,1.88
2023-03-29T12:24:49.154Z,3.97
2023-03-29T12:27:31.777Z,2.85
2023-03-29T12:30:10.568Z,2.90
2023-03-29T12:32:56.739Z,2.90
2023-03-29T12:36:04.535Z,3.30
2023-03-29T12:38:52.408Z,2.00
2023-03-29T12:41:38.311Z,2.10
2023-03-29T12:44:24.242Z,2.38
2023-03-29T12:47:03.455Z,1.90
2023-03-29T12:49:34.070Z,1.98
2023-03-29T12:52:03.604Z,1.80
2023-03-29T12:54:33.493Z,2.00
2023-03-29T12:57:33.399Z,1.70
2023-03-29T13:00:25.984Z,2.13
2023-03-29T13:03:39.321Z,1.80
2023-03-29T13:06:09.467Z,2.20
2023-03-29T13:08:42.998Z,2.15
2023-03-29T13:11:25.135Z,2.03
2023-03-29T13:13:52.326Z,1.88
2023-03-29T13:16:28.136Z,1.88
2023-03-29T13:19:01.331Z,2.28
2023-03-29T13:21:30.727Z,2.08
2023-03-29T13:24:22.258Z,1.98
2023-03-29T13:27:10.305Z,2.00
2023-03-29T13:29:55.903Z,2.00
2023-03-29T13:32:38.977Z,2.05
2023-03-29T13:35:33.316Z,2.17
2023-03-29T13:38:15.830Z,1.95
2023-03-29T13:40:56.949Z,2.00
2023-03-29T13:43:32.368Z,2.63
2023-03-29T13:45:58.920Z,6.32
2023-03-29T13:48:29.885Z,2.15
2023-03-29T13:51:13.239Z,2.80
2023-03-29T13:54:01.554Z,2.20
2023-03-29T13:56:55.078Z,2.28
2023-03-29T13:59:51.605Z,2.13
2023-03-29T14:02:32.450Z,2.50
2023-03-29T14:05:13.854Z,2.30
2023-03-29T14:07:46.958Z,2.42
2023-03-29T14:10:21.733Z,2.83
2023-03-29T14:12:49.434Z,2.50
2023-03-29T14:15:38.844Z,2.55
2023-03-29T14:18:05.664Z,2.63
2023-03-29T14:20:33.345Z,2.10
2023-03-29T14:23:00.371Z,2.25
2023-03-29T14:25:29.343Z,2.10
2023-03-29T14:27:56.028Z,2.10
2023-03-29T14:30:30.115Z,2.47
2023-03-29T14:32:57.900Z,2.00
2023-03-29T14:35:31.484Z,2.10
2023-03-29T14:37:59.243Z,2.08
2023-03-29T14:40:27.623Z,2.10
2023-03-29T14:42:55.155Z,2.33
2023-03-29T14:45:23.367Z,2.17
2023-03-29T14:47:51.955Z,2.42
2023-03-29T14:50:27.103Z,2.20
2023-03-29T14:52:54.501Z,2.38
2023-03-29T14:55:23.903Z,2.00
2023-03-29T14:57:54.438Z,2.25
2023-03-29T15:00:31.525Z,2.25
2023-03-29T15:03:01.066Z,2.10
2023-03-29T15:05:40.752Z,2.05
2023-03-29T15:08:13.568Z,2.33
2023-03-29T15:10:42.962Z,2.30
2023-03-29T15:13:21.687Z,2.15
2023-03-29T15:15:52.669Z,2.05
2023-03-29T15:18:27.234Z,2.25
2023-03-29T15:20:54.557Z,2.03
2023-03-29T15:23:23.994Z,2.45
2023-03-29T15:25:53.493Z,2.15
2023-03-29T15:28:31.055Z,2.47
2023-03-29T15:31:11.938Z,3.30
2023-03-29T15:33:40.977Z,4.72
2023-03-29T15:36:10.313Z,2.78
2023-03-29T15:38:44.064Z,2.70
2023-03-29T15:41:13.502Z,2.40
2023-03-29T15:43:41.391Z,2.08
2023-03-29T15:46:08.798Z,2.30
2023-03-29T15:48:35.632Z,2.55
2023-03-29T15:51:06.169Z,2.97
2023-03-29T15:53:33.371Z,3.70
2023-03-29T15:56:01.934Z,2.38
2023-03-29T15:58:33.799Z,2.15
2023-03-29T16:01:33.937Z,1.90
2023-03-29T16:04:11.234Z,1.90
2023-03-29T16:06:38.055Z,1.75
2023-03-29T16:09:08.218Z,2.00
2023-03-29T16:11:35.751Z,2.30
2023-03-29T16:14:02.743Z,2.58
2023-03-29T16:16:29.671Z,2.22
2023-03-29T16:18:56.334Z,2.30
2023-03-29T16:21:24.368Z,2.78
2023-03-29T16:23:51.477Z,2.97
2023-03-29T16:26:18.207Z,3.30
2023-03-29T16:28:44.839Z,2.85
2023-03-29T16:31:14.908Z,2.28
2023-03-29T16:33:41.756Z,2.65
2023-03-29T16:36:09.730Z,2.67
2023-03-29T16:38:36.687Z,2.72
2023-03-29T16:41:03.822Z,2.10
2023-03-29T16:43:30.554Z,2.08
2023-03-29T16:45:57.454Z,2.63
2023-03-29T16:48:24.267Z,2.45
2023-03-29T16:50:51.008Z,2.53
2023-03-29T16:53:21.702Z,2.72
2023-03-29T16:55:48.777Z,2.60
2023-03-29T16:58:16.269Z,2.50
2023-03-29T17:00:46.401Z,2.75
2023-03-29T17:03:14.743Z,2.53
2023-03-29T17:05:48.592Z,2.53
2023-03-29T17:08:15.465Z,2.42
2023-03-29T17:10:42.514Z,1.80
2023-03-29T17:13:09.845Z,3.35
2023-03-29T17:15:39.418Z,2.10
2023-03-29T17:18:06.587Z,2.40
2023-03-29T17:20:33.257Z,3.67
2023-03-29T17:22:59.934Z,3.78
2023-03-29T17:25:26.659Z,2.53
2023-03-29T17:27:54.106Z,2.40
2023-03-29T17:30:20.817Z,2.50
2023-03-29T17:32:47.470Z,2.13
2023-03-29T17:35:14.557Z,2.25
2023-03-29T17:37:41.984Z,2.03
2023-03-29T17:40:13.942Z,2.20
2023-03-29T17:42:46.411Z,1.90
2023-03-29T17:45:13.055Z,1.92
2023-03-29T17:47:40.571Z,2.60
2023-03-29T17:50:09.398Z,2.20
2023-03-29T17:52:36.175Z,2.70
2023-03-29T17:55:03.117Z,2.35
2023-03-29T17:57:29.696Z,1.90
2023-03-29T17:59:56.336Z,2.40
2023-03-29T18:02:24.466Z,2.33
2023-03-29T18:04:51.804Z,2.58
2023-03-29T18:07:18.796Z,2.90
2023-03-29T18:09:45.468Z,2.60
2023-03-29T18:12:12.491Z,2.17
2023-03-29T18:14:39.099Z,2.40
2023-03-29T18:17:05.789Z,2.65
2023-03-29T18:19:32.459Z,2.22
2023-03-29T18:21:59.028Z,2.33
2023-03-29T18:24:25.630Z,2.15
2023-03-29T18:26:52.237Z,2.25
2023-03-29T18:29:18.968Z,2.42
2023-03-29T18:31:46.209Z,2.30
2023-03-29T18:34:12.985Z,2.40
2023-03-29T18:36:39.565Z,2.28
2023-03-29T18:39:06.312Z,2.05
2023-03-29T18:41:34.536Z,2.05
2023-03-29T18:44:01.395Z,2.53
2023-03-29T18:46:31.162Z,2.47
2023-03-29T18:49:01.163Z,2.15
2023-03-29T18:51:31.033Z,2.50
2023-03-29T18:53:57.694Z,2.40
2023-03-29T18:56:24.374Z,2.40
2023-03-29T18:58:51.478Z,2.40
2023-03-29T19:01:18.161Z,2.70
2023-03-29T19:03:44.908Z,3.75
2023-03-29T19:06:11.896Z,2.92
2023-03-29T19:08:41.277Z,2.50
2023-03-29T19:11:10.712Z,2.50
2023-03-29T19:13:37.433Z,2.90
2023-03-29T19:16:04.685Z,2.20
2023-03-29T19:18:32.706Z,2.40
2023-03-29T19:20:59.352Z,2.35
2023-03-29T19:23:28.559Z,2.25
2023-03-29T19:25:57.426Z,2.20
2023-03-29T19:28:24.888Z,2.20
2023-03-29T19:30:51.564Z,2.50
2023-03-29T19:33:18.579Z,2.47
2023-03-29T19:35:45.775Z,1.95
2023-03-29T19:38:12.593Z,2.17
2023-03-29T19:40:39.192Z,2.53
2023-03-29T19:43:05.945Z,2.10
2023-03-29T19:45:32.561Z,2.20
2023-03-29T19:48:03.183Z,2.60
2023-03-29T19:50:31.694Z,2.40
2023-03-29T19:52:58.537Z,2.95
2023-03-29T19:55:25.969Z,2.88
2023-03-29T19:57:52.669Z,3.47
2023-03-29T20:00:24.328Z,2.47
2023-03-29T20:02:52.642Z,2.47
2023-03-29T20:05:20.188Z,2.50
2023-03-29T20:07:46.938Z,2.30
2023-03-29T20:10:13.715Z,2.60
2023-03-29T20:12:40.338Z,2.22
2023-03-29T20:15:07.771Z,1.90
2023-03-29T20:17:35.529Z,2.35
2023-03-29T20:20:07.815Z,2.03
2023-03-29T20:22:34.453Z,2.00
2023-03-29T20:25:01.228Z,2.45
2023-03-29T20:27:29.412Z,2.10
2023-03-29T20:29:56.625Z,2.03
2023-03-29T20:32:23.271Z,2.30
2023-03-29T20:34:50.444Z,2.03
2023-03-29T20:37:17.174Z,1.90
2023-03-29T20:39:43.935Z,2.03
2023-03-29T20:42:11.220Z,1.95
2023-03-29T20:44:39.564Z,2.10
2023-03-29T20:47:08.444Z,2.22
2023-03-29T20:49:39.690Z,2.00
2023-03-29T20:52:08.576Z,2.10
2023-03-29T20:54:35.728Z,2.00
2023-03-29T20:57:03.734Z,2.30
2023-03-29T20:59:30.520Z,1.92
2023-03-29T21:01:58.409Z,1.90
2023-03-29T21:04:33.660Z,2.10
2023-03-29T21:07:02.976Z,2.00
2023-03-29T21:09:31.053Z,1.98
2023-03-29T21:11:57.651Z,1.83
2023-03-29T21:14:26.679Z,2.10
2023-03-29T21:16:53.554Z,1.98
2023-03-29T21:19:20.127Z,1.80
2023-03-29T21:21:48.220Z,1.92
2023-03-29T21:24:14.791Z,1.92
2023-03-29T21:26:41.847Z,2.13
2023-03-29T21:29:08.596Z,1.63
2023-03-29T21:31:35.427Z,1.80
2023-03-29T21:34:02.070Z,1.88
2023-03-29T21:36:28.762Z,1.60
2023-03-29T21:38:55.848Z,1.70
2023-03-29T21:41:22.540Z,1.95
2023-03-29T21:43:49.172Z,2.15
2023-03-29T21:46:15.913Z,1.90
2023-03-29T21:48:42.520Z,2.03
2023-03-29T21:51:09.574Z,1.95
2023-03-29T21:53:36.334Z,1.98
2023-03-29T21:56:03.240Z,1.80
2023-03-29T21:58:29.887Z,2.17
2023-03-29T22:00:57.185Z,1.70
2023-03-29T22:03:23.970Z,2.17
2023-03-29T22:05:59.284Z,2.15
2023-03-29T22:08:26.490Z,2.20
2023-03-29T22:10:55.496Z,1.63
2023-03-29T22:13:28.189Z,1.95
2023-03-29T22:15:58.577Z,1.92
2023-03-29T22:18:27.844Z,1.75
2023-03-29T22:20:54.641Z,2.20
2023-03-29T22:23:21.266Z,1.83
2023-03-29T22:25:47.892Z,1.88
2023-03-29T22:28:14.498Z,2.00
2023-03-29T22:30:41.369Z,2.17
2023-03-29T22:33:08.052Z,1.75
2023-03-29T22:35:35.635Z,1.80
2023-03-29T22:38:02.380Z,2.17
2023-03-29T22:40:31.195Z,2.15
2023-03-29T22:42:57.848Z,2.20
2023-03-29T22:45:24.690Z,2.20
2023-03-29T22:47:51.617Z,1.90
2023-03-29T22:50:18.270Z,2.15
2023-03-29T22:52:44.907Z,1.90
2023-03-29T22:55:11.743Z,2.00
2023-03-29T22:57:38.359Z,1.92
2023-03-29T23:00:09.103Z,1.98
2023-03-29T23:02:43.340Z,1.88
2023-03-29T23:05:10.037Z,2.20
2023-03-29T23:07:36.957Z,2.17
2023-03-29T23:10:06.451Z,2.00
2023-03-29T23:12:36.213Z,1.90
2023-03-29T23:15:06.414Z,2.00
2023-03-29T23:17:33.094Z,1.95
2023-03-29T23:19:59.725Z,2.15
2023-03-29T23:22:26.315Z,1.98
2023-03-29T23:24:53.397Z,1.83
2023-03-29T23:27:20.007Z,2.25
2023-03-29T23:29:47.772Z,2.10
2023-03-29T23:32:14.603Z,1.85
2023-03-29T23:34:41.748Z,2.08
2023-03-29T23:37:08.393Z,1.98
2023-03-29T23:39:34.965Z,2.40
2023-03-29T23:42:02.987Z,1.88
2023-03-29T23:44:30.523Z,2.35
2023-03-29T23:46:57.206Z,2.13
2023-03-29T23:49:24.123Z,1.77
2023-03-29T23:51:50.730Z,2.30
2023-03-29T23:54:17.556Z,2.15
2023-03-29T23:56:44.193Z,2.03
2023-03-29T23:59:10.784Z,2.17
